Time;durP1;ratioP1;P1;durP2;ratioP2;P2;SDS_P1;SDS_P2;PMS_P1;PMS_P2;Temp;Humidity;BMP_temperature;BMP_pressure;BME280_temperature;BME280_humidity;BME280_pressure;Samples;Min_cycle;Max_cycle;Signal;HPM_P1;HPM_P2
2023/10/15 00:00:16;;;;;;;0.70;0.70;;;7.20;99.90;;;;;;5103655;28;20109;-73
2023/10/15 00:02:43;;;;;;;0.47;0.47;;;7.20;99.90;;;;;;5106052;27;20498;-73
2023/10/15 00:05:26;;;;;;;0.60;0.60;;;7.10;99.90;;;;;;5101635;27;20047;-73
2023/10/15 00:07:52;;;;;;;0.57;0.57;;;7.00;99.90;;;;;;5099219;28;20506;-72
2023/10/15 00:10:20;;;;;;;0.57;0.57;;;6.90;99.90;;;;;;5099952;27;20039;-72
2023/10/15 00:12:48;;;;;;;0.50;0.50;;;6.80;99.90;;;;;;5082167;28;20409;-73
2023/10/15 00:15:23;;;;;;;0.55;0.55;;;6.70;99.90;;;;;;5105208;28;20512;-73
2023/10/15 00:17:53;;;;;;;0.60;0.60;;;6.60;99.90;;;;;;5109717;27;20047;-73
2023/10/15 00:20:20;;;;;;;0.60;0.60;;;6.50;99.90;;;;;;5096189;27;20035;-73
2023/10/15 00:22:48;;;;;;;0.60;0.60;;;6.50;99.90;;;;;;5094437;27;20040;-73
2023/10/15 00:25:14;;;;;;;0.50;0.50;;;6.50;99.90;;;;;;5098623;27;20105;-73
2023/10/15 00:27:44;;;;;;;0.50;0.50;;;6.40;99.90;;;;;;5107415;27;20150;-73
2023/10/15 00:30:13;;;;;;;0.60;0.60;;;6.50;99.90;;;;;;5100456;28;20055;-73
2023/10/15 00:32:43;;;;;;;0.47;0.47;;;6.40;99.90;;;;;;5096202;28;20040;-73
2023/10/15 00:35:10;;;;;;;0.50;0.50;;;6.40;99.90;;;;;;5100354;28;20040;-73
2023/10/15 00:37:41;;;;;;;0.52;0.52;;;6.40;99.90;;;;;;5100324;28;20058;-74
2023/10/15 00:40:18;;;;;;;0.60;0.60;;;6.40;99.90;;;;;;5100498;28;20306;-73
2023/10/15 00:42:45;;;;;;;3.80;2.25;;;6.40;99.90;;;;;;5095213;28;20077;-73
2023/10/15 00:45:15;;;;;;;0.60;0.60;;;6.30;99.90;;;;;;5102732;28;20494;-73
2023/10/15 00:50:48;;;;;;;0.50;0.50;;;6.30;99.90;;;;;;5042998;28;20091;-73
2023/10/15 00:53:25;;;;;;;0.60;0.60;;;6.30;99.90;;;;;;5088429;28;20176;-73
2023/10/15 00:55:53;;;;;;;0.60;0.60;;;6.30;99.90;;;;;;5096515;28;20046;-73
2023/10/15 01:01:20;;;;;;;0.40;0.40;;;6.40;99.90;;;;;;5082262;28;20085;-73
2023/10/15 01:03:59;;;;;;;0.90;0.90;;;6.40;99.90;;;;;;5103064;28;20555;-73
2023/10/15 01:06:32;;;;;;;0.60;0.60;;;6.40;99.90;;;;;;5100799;28;20122;-73
2023/10/15 01:08:59;;;;;;;0.80;0.80;;;6.50;99.90;;;;;;5097029;28;20409;-73
2023/10/15 01:11:28;;;;;;;1.13;1.13;;;6.70;99.90;;;;;;5098087;28;20123;-73
2023/10/15 01:13:56;;;;;;;0.57;0.57;;;6.80;99.90;;;;;;5098856;28;20100;-73
2023/10/15 01:16:22;;;;;;;0.82;0.82;;;7.00;99.90;;;;;;5100033;28;20140;-73
2023/10/15 01:19:33;;;;;;;;;;;7.10;99.90;;;;;;5103729;28;20810;-73
2023/10/15 01:22:02;;;;;;;0.50;0.50;;;7.20;99.90;;;;;;5098194;28;19933;-73
2023/10/15 01:24:28;;;;;;;1.83;1.73;;;7.30;99.90;;;;;;5096890;28;20052;-73
2023/10/15 01:27:11;;;;;;;0.50;0.50;;;7.30;99.90;;;;;;5081683;28;20040;-73
2023/10/15 01:29:45;;;;;;;0.50;0.50;;;7.30;99.90;;;;;;5096437;28;20516;-73
2023/10/15 01:32:22;;;;;;;0.30;0.30;;;7.30;99.90;;;;;;5079610;28;20059;-74
2023/10/15 01:34:52;;;;;;;0.50;0.50;;;7.30;99.90;;;;;;5105049;28;20641;-74
2023/10/15 01:39:52;;;;;;;0.50;0.50;;;7.10;99.90;;;;;;5096342;27;20059;-74
2023/10/15 01:44:54;;;;;;;0.77;0.77;;;6.90;99.90;;;;;;5104373;28;20060;-75
2023/10/15 01:47:27;;;;;;;0.55;0.55;;;6.90;99.90;;;;;;5101887;27;20051;-75
2023/10/15 01:49:56;;;;;;;0.50;0.50;;;7.00;99.90;;;;;;5106108;28;20088;-75
2023/10/15 01:52:29;;;;;;;0.70;0.70;;;6.90;99.90;;;;;;5107919;27;20674;-75
2023/10/15 01:54:55;;;;;;;0.40;0.40;;;6.80;99.90;;;;;;5104870;27;20122;-75
2023/10/15 01:57:22;;;;;;;0.70;0.70;;;6.70;99.90;;;;;;5118298;27;20437;-75
2023/10/15 01:59:47;;;;;;;0.60;0.60;;;6.50;99.90;;;;;;5099586;27;20055;-75
2023/10/15 02:02:18;;;;;;;0.60;0.60;;;7.00;99.90;;;;;;5103560;27;20043;-75
2023/10/15 02:04:44;;;;;;;0.55;0.55;;;6.40;99.90;;;;;;5100307;28;20363;-75
2023/10/15 02:07:17;;;;;;;0.50;0.50;;;6.30;99.90;;;;;;5108346;27;20561;-74
2023/10/15 02:09:43;;;;;;;0.50;0.50;;;6.10;99.90;;;;;;5109085;27;20079;-74
2023/10/15 02:12:20;;;;;;;0.57;0.57;;;6.00;99.90;;;;;;5103377;27;20046;-74
2023/10/15 02:14:51;;;;;;;0.60;0.60;;;5.90;99.90;;;;;;5103401;27;20042;-74
2023/10/15 02:17:24;;;;;;;0.50;0.50;;;5.80;99.90;;;;;;5091535;28;20066;-74
2023/10/15 02:19:55;;;;;;;0.60;0.60;;;5.70;99.90;;;;;;5085901;28;20043;-74
2023/10/15 02:22:21;;;;;;;0.50;0.50;;;5.50;99.90;;;;;;5100512;28;20043;-75
2023/10/15 02:24:47;;;;;;;0.60;0.60;;;5.40;99.90;;;;;;5098897;28;20055;-75
2023/10/15 02:27:21;;;;;;;0.57;0.57;;;5.40;99.90;;;;;;5099599;28;20055;-74
2023/10/15 02:29:50;;;;;;;0.60;0.60;;;5.20;99.90;;;;;;5099102;27;20505;-75
2023/10/15 02:34:45;;;;;;;0.50;0.50;;;5.30;99.90;;;;;;5101825;28;20058;-74
2023/10/15 02:37:18;;;;;;;0.60;0.60;;;5.10;99.90;;;;;;5101844;28;20035;-74
2023/10/15 02:39:49;;;;;;;0.60;0.60;;;5.60;99.90;;;;;;5098906;27;20255;-74
2023/10/15 02:42:19;;;;;;;0.60;0.60;;;5.20;99.90;;;;;;5090181;28;20052;-74
2023/10/15 02:44:52;;;;;;;0.52;0.52;;;5.30;99.90;;;;;;5102113;27;20059;-74
2023/10/15 02:47:28;;;;;;;0.60;0.60;;;5.40;99.90;;;;;;5102020;28;20056;-74
2023/10/15 02:49:59;;;;;;;0.60;0.60;;;5.40;99.90;;;;;;5102076;27;20096;-74
2023/10/15 02:52:26;;;;;;;0.50;0.50;;;5.70;99.90;;;;;;5098361;28;20482;-75
2023/10/15 02:54:51;;;;;;;;;;;5.60;99.90;;;;;;5107351;27;20131;-74
2023/10/15 02:57:17;;;;;;;0.70;0.70;;;5.70;99.90;;;;;;5101580;27;20350;-74
2023/10/15 02:59:52;;;;;;;0.60;0.60;;;5.80;99.90;;;;;;5102548;28;20039;-74
2023/10/15 03:02:20;;;;;;;0.50;0.50;;;5.90;99.90;;;;;;5104158;27;20048;-75
2023/10/15 03:04:53;;;;;;;0.50;0.50;;;6.00;99.90;;;;;;5102032;28;20040;-76
2023/10/15 03:07:19;;;;;;;0.60;0.60;;;6.50;99.90;;;;;;5101274;28;20055;-78
2023/10/15 03:09:48;;;;;;;0.60;0.60;;;5.90;99.90;;;;;;5102822;28;20051;-78
2023/10/15 03:12:16;;;;;;;0.63;0.63;;;5.80;99.90;;;;;;5105893;27;20056;-77
2023/10/15 03:14:42;;;;;;;0.50;0.50;;;5.80;99.90;;;;;;5101990;27;20044;-79
2023/10/15 03:17:14;;;;;;;0.60;0.60;;;6.50;99.90;;;;;;5096014;28;20861;-79
2023/10/15 03:19:43;;;;;;;0.60;0.60;;;5.80;99.90;;;;;;5107958;27;20039;-79
2023/10/15 03:22:12;;;;;;;0.52;0.52;;;5.90;99.90;;;;;;5107570;27;20047;-79
2023/10/15 03:24:43;;;;;;;0.60;0.60;;;5.90;99.90;;;;;;5102551;28;20090;-78
2023/10/15 03:27:09;;;;;;;0.57;0.57;;;5.90;99.90;;;;;;5101462;27;20040;-77
2023/10/15 03:29:34;;;;;;;0.60;0.60;;;6.30;99.90;;;;;;5103016;27;20100;-77
2023/10/15 03:32:09;;;;;;;0.60;0.60;;;6.00;99.90;;;;;;5102394;28;20343;-78
2023/10/15 03:34:47;;;;;;;0.63;0.63;;;6.00;99.90;;;;;;5092968;27;20046;-77
2023/10/15 03:37:16;;;;;;;0.65;0.65;;;6.10;99.90;;;;;;5098173;28;20058;-77
2023/10/15 03:44:44;;;;;;;0.60;0.60;;;6.50;99.90;;;;;;5104284;27;20047;-77
2023/10/15 03:47:16;;;;;;;0.63;0.63;;;6.10;99.90;;;;;;5111408;27;20051;-77
2023/10/15 03:49:51;;;;;;;0.50;0.50;;;6.10;99.90;;;;;;5108205;27;20036;-78
2023/10/15 03:52:20;;;;;;;0.52;0.52;;;6.10;99.90;;;;;;5114294;27;20544;-76
2023/10/15 03:54:50;;;;;;;0.70;0.70;;;6.10;99.90;;;;;;5116310;27;20054;-76
2023/10/15 03:57:28;;;;;;;0.70;0.70;;;6.10;99.90;;;;;;5077524;28;20108;-76
2023/10/15 03:59:54;;;;;;;0.50;0.50;;;6.10;99.90;;;;;;5097751;27;20375;-76
2023/10/15 04:02:43;;;;;;;0.70;0.70;;;6.10;99.90;;;;;;5099311;28;20506;-77
2023/10/15 04:05:12;;;;;;;0.60;0.60;;;6.20;99.90;;;;;;5102763;28;20042;-78
2023/10/15 04:07:45;;;;;;;0.70;0.70;;;6.20;99.90;;;;;;5107828;27;20051;-77
2023/10/15 04:10:12;;;;;;;0.60;0.60;;;6.20;99.90;;;;;;5110718;27;20600;-78
2023/10/15 04:12:41;;;;;;;0.45;0.45;;;6.30;99.90;;;;;;5084083;28;20074;-77
2023/10/15 04:15:14;;;;;;;0.60;0.60;;;6.30;99.90;;;;;;5099774;28;20039;-76
2023/10/15 04:17:42;;;;;;;0.70;0.70;;;6.30;99.90;;;;;;5096991;28;20048;-76
2023/10/15 04:20:08;;;;;;;0.60;0.60;;;6.40;99.90;;;;;;5101448;28;20154;-76
2023/10/15 04:22:43;;;;;;;0.60;0.60;;;6.20;99.90;;;;;;5118683;27;20119;-76
2023/10/15 04:25:23;;;;;;;0.60;0.60;;;6.20;99.90;;;;;;5101190;28;20050;-77
2023/10/15 04:28:08;;;;;;;0.60;0.60;;;6.10;99.90;;;;;;5105477;27;20047;-77
2023/10/15 04:30:38;;;;;;;0.60;0.60;;;6.00;99.90;;;;;;5109331;28;20050;-77
2023/10/15 04:33:10;;;;;;;0.60;0.60;;;6.20;99.90;;;;;;5109238;28;20040;-77
2023/10/15 04:35:37;;;;;;;0.50;0.50;;;6.00;99.90;;;;;;5110047;27;20051;-76
2023/10/15 04:38:10;;;;;;;0.60;0.60;;;5.90;99.90;;;;;;5088727;28;20452;-76
2023/10/15 04:43:25;;;;;;;0.52;0.52;;;6.00;99.90;;;;;;5103996;28;20124;-76
2023/10/15 04:45:55;;;;;;;0.60;0.60;;;6.20;99.90;;;;;;5103288;28;20502;-76
2023/10/15 04:48:32;;;;;;;0.60;0.60;;;5.90;99.90;;;;;;5101495;28;20501;-75
2023/10/15 04:51:04;;;;;;;0.45;0.45;;;5.90;99.90;;;;;;5104993;28;20200;-74
2023/10/15 04:53:31;;;;;;;0.70;0.70;;;5.70;99.90;;;;;;5106024;28;20051;-74
2023/10/15 04:55:59;;;;;;;0.60;0.60;;;5.80;99.90;;;;;;5102913;28;20052;-75
2023/10/15 04:58:27;;;;;;;0.40;0.40;;;5.70;99.90;;;;;;5102516;28;20518;-74
2023/10/15 05:00:54;;;;;;;0.60;0.60;;;5.70;99.90;;;;;;5105883;28;20113;-74
2023/10/15 05:03:23;;;;;;;0.60;0.60;;;5.70;99.90;;;;;;5098014;28;20047;-74
2023/10/15 05:05:50;;;;;;;0.40;0.40;;;5.80;99.90;;;;;;5102344;28;20076;-74
2023/10/15 05:08:17;;;;;;;0.55;0.55;;;5.80;99.90;;;;;;5098542;28;20168;-74
2023/10/15 05:10:50;;;;;;;0.90;0.90;;;5.90;99.90;;;;;;5106045;28;20906;-74
2023/10/15 05:13:17;;;;;;;0.60;0.60;;;5.90;99.90;;;;;;5108794;28;20039;-74
2023/10/15 05:15:49;;;;;;;0.60;0.60;;;5.90;99.90;;;;;;5112699;27;20141;-75
2023/10/15 05:18:15;;;;;;;0.57;0.57;;;6.00;99.90;;;;;;5114397;27;20055;-75
2023/10/15 05:20:42;;;;;;;;;;;5.80;99.90;;;;;;5110352;27;20381;-75
2023/10/15 05:23:08;;;;;;;0.60;0.60;;;5.70;99.90;;;;;;5114226;27;19923;-75
2023/10/15 05:25:33;;;;;;;0.52;0.52;;;5.70;99.90;;;;;;5112722;27;20043;-74
2023/10/15 05:27:59;;;;;;;0.45;0.45;;;5.70;99.90;;;;;;5084008;28;20216;-74
2023/10/15 05:30:26;;;;;;;0.60;0.60;;;5.70;99.90;;;;;;5099885;28;20138;-75
2023/10/15 05:32:52;;;;;;;0.68;0.68;;;5.80;99.90;;;;;;5117662;27;20039;-74
2023/10/15 05:35:17;;;;;;;;;;;5.70;99.90;;;;;;5097768;28;20055;-75
2023/10/15 05:37:45;;;;;;;0.50;0.50;;;5.70;99.90;;;;;;5104489;27;19927;-75
2023/10/15 05:40:15;;;;;;;0.63;0.63;;;5.80;99.90;;;;;;5110556;27;21318;-74
2023/10/15 05:42:41;;;;;;;0.65;0.65;;;6.70;99.90;;;;;;5105183;27;20091;-74
2023/10/15 05:45:07;;;;;;;0.40;0.40;;;5.90;99.90;;;;;;5109638;27;20494;-74
2023/10/15 05:47:35;;;;;;;0.50;0.50;;;5.90;99.90;;;;;;5098761;27;20055;-75
2023/10/15 05:50:04;;;;;;;0.50;0.50;;;5.90;99.90;;;;;;5101812;27;20035;-75
2023/10/15 05:52:30;;;;;;;0.50;0.50;;;5.90;99.90;;;;;;5093913;28;20043;-75
2023/10/15 05:54:56;;;;;;;0.60;0.60;;;6.20;99.90;;;;;;5105685;27;20363;-75
2023/10/15 05:57:22;;;;;;;0.60;0.60;;;6.00;99.90;;;;;;5111833;27;20051;-75
2023/10/15 05:59:50;;;;;;;0.60;0.60;;;6.30;99.90;;;;;;5116011;27;20043;-77
2023/10/15 06:02:16;;;;;;;0.55;0.55;;;6.00;99.90;;;;;;5107029;27;20505;-75
2023/10/15 06:04:43;;;;;;;0.70;0.70;;;6.00;99.90;;;;;;5105565;27;20071;-75
2023/10/15 06:07:12;;;;;;;0.60;0.60;;;6.60;99.90;;;;;;5104205;27;20437;-75
2023/10/15 06:09:38;;;;;;;0.50;0.50;;;5.90;99.90;;;;;;5104284;27;20048;-76
2023/10/15 06:12:07;;;;;;;0.60;0.60;;;5.80;99.90;;;;;;5103943;27;20054;-76
2023/10/15 06:14:33;;;;;;;0.52;0.52;;;5.80;99.90;;;;;;5102049;27;20631;-76
2023/10/15 06:16:59;;;;;;;0.50;0.50;;;5.80;99.90;;;;;;5102334;27;20110;-75
2023/10/15 06:19:25;;;;;;;0.60;0.60;;;6.10;99.90;;;;;;5088069;27;20046;-75
2023/10/15 06:21:51;;;;;;;;;;;5.70;99.90;;;;;;5112459;27;20075;-75
2023/10/15 06:24:17;;;;;;;0.55;0.55;;;5.70;99.90;;;;;;5108687;27;20346;-75
2023/10/15 06:26:44;;;;;;;0.50;0.50;;;5.80;99.90;;;;;;5110566;27;20131;-76
2023/10/15 06:29:10;;;;;;;0.60;0.60;;;5.80;99.90;;;;;;5103758;27;21023;-76
2023/10/15 06:31:37;;;;;;;0.60;0.60;;;5.90;99.90;;;;;;5105335;27;20124;-75
2023/10/15 06:34:02;;;;;;;0.55;0.55;;;5.90;99.90;;;;;;5110308;27;20402;-76
2023/10/15 06:36:28;;;;;;;0.63;0.63;;;5.90;99.90;;;;;;5109776;27;20040;-76
2023/10/15 06:38:56;;;;;;;0.75;0.75;;;5.90;99.90;;;;;;5106588;27;20376;-76
2023/10/15 06:41:23;;;;;;;0.50;0.50;;;5.90;99.90;;;;;;5101711;27;20046;-76
2023/10/15 06:43:50;;;;;;;0.60;0.60;;;5.90;99.90;;;;;;5099305;28;20047;-76
2023/10/15 06:46:16;;;;;;;0.55;0.55;;;6.00;99.90;;;;;;5106372;27;20051;-76
2023/10/15 06:48:42;;;;;;;0.50;0.50;;;5.90;99.90;;;;;;5105746;27;20405;-75
2023/10/15 06:51:09;;;;;;;0.50;0.50;;;6.30;99.90;;;;;;5102153;27;20076;-75
2023/10/15 06:53:34;;;;;;;0.60;0.60;;;6.00;99.90;;;;;;5116842;27;20044;-76
2023/10/15 06:56:06;;;;;;;0.60;0.60;;;5.90;99.90;;;;;;5090494;27;20512;-75
2023/10/15 06:58:35;;;;;;;0.60;0.60;;;6.00;99.90;;;;;;5106514;27;20048;-75
2023/10/15 07:01:02;;;;;;;0.45;0.45;;;6.10;99.90;;;;;;5108050;27;20043;-75
2023/10/15 07:03:28;;;;;;;0.50;0.50;;;6.20;99.90;;;;;;5104242;27;20044;-75
2023/10/15 07:05:54;;;;;;;0.50;0.50;;;6.30;99.90;;;;;;5107919;27;20046;-75
2023/10/15 07:08:20;;;;;;;0.55;0.55;;;6.30;99.90;;;;;;5100827;28;20035;-75
2023/10/15 07:10:46;;;;;;;0.55;0.55;;;6.30;99.90;;;;;;5103536;27;20051;-75
2023/10/15 07:13:12;;;;;;;1.40;1.40;;;6.30;99.90;;;;;;5114873;27;20106;-76
2023/10/15 07:15:38;;;;;;;0.60;0.60;;;6.30;99.90;;;;;;5105314;27;20059;-75
2023/10/15 07:18:04;;;;;;;0.73;0.73;;;6.40;99.90;;;;;;5108591;27;20516;-75
2023/10/15 07:20:31;;;;;;;0.50;0.50;;;6.30;99.90;;;;;;5112619;27;20040;-75
2023/10/15 07:23:00;;;;;;;0.50;0.50;;;6.30;99.90;;;;;;5101784;27;20219;-75
2023/10/15 07:25:28;;;;;;;0.50;0.50;;;6.40;99.90;;;;;;5104078;27;20108;-76
2023/10/15 07:27:56;;;;;;;0.60;0.60;;;6.30;99.90;;;;;;5103098;28;20101;-76
2023/10/15 07:30:22;;;;;;;0.57;0.57;;;6.50;99.90;;;;;;5105709;27;20108;-75
2023/10/15 07:32:58;;;;;;;0.60;0.60;;;6.40;99.90;;;;;;5104965;27;20075;-76
2023/10/15 07:35:26;;;;;;;0.57;0.57;;;6.40;99.90;;;;;;5104081;27;20052;-74
2023/10/15 07:37:52;;;;;;;0.60;0.60;;;6.40;99.90;;;;;;5093407;27;20099;-75
2023/10/15 07:40:21;;;;;;;0.63;0.63;;;6.40;99.90;;;;;;5089719;28;20054;-74
2023/10/15 07:42:59;;;;;;;0.50;0.50;;;6.40;99.90;;;;;;5107003;27;20052;-75
2023/10/15 07:45:28;;;;;;;0.45;0.45;;;6.40;99.90;;;;;;5105319;28;21790;-75
2023/10/15 07:47:55;;;;;;;0.50;0.50;;;6.40;99.90;;;;;;5105886;28;20118;-75
2023/10/15 07:50:23;;;;;;;0.60;0.60;;;6.30;99.90;;;;;;5084275;28;20083;-75
2023/10/15 07:52:52;;;;;;;1.20;1.20;;;6.30;99.90;;;;;;5087640;28;20093;-74
2023/10/15 07:55:18;;;;;;;0.60;0.60;;;6.30;99.90;;;;;;5104249;27;20044;-74
2023/10/15 07:57:45;;;;;;;1.10;1.10;;;6.40;99.90;;;;;;5103892;28;20481;-75
2023/10/15 08:00:16;;;;;;;0.50;0.50;;;6.40;99.90;;;;;;5101845;28;20078;-74
2023/10/15 08:02:45;;;;;;;1.60;1.58;;;6.70;99.90;;;;;;5099330;28;20103;-74
2023/10/15 08:05:14;;;;;;;0.50;0.50;;;7.30;99.90;;;;;;5103560;28;20051;-74
2023/10/15 08:07:43;;;;;;;0.50;0.50;;;6.90;99.90;;;;;;5102824;28;20043;-74
2023/10/15 08:10:10;;;;;;;0.60;0.60;;;7.00;99.90;;;;;;5104591;28;20087;-75
2023/10/15 08:12:36;;;;;;;0.65;0.65;;;7.30;99.90;;;;;;5103682;28;20109;-75
2023/10/15 08:15:03;;;;;;;0.50;0.50;;;7.00;99.90;;;;;;5104189;27;20047;-74
2023/10/15 08:17:31;;;;;;;0.60;0.60;;;6.80;99.90;;;;;;5118917;27;20047;-74
2023/10/15 08:19:56;;;;;;;0.50;0.50;;;7.30;99.90;;;;;;5086272;28;20054;-74
2023/10/15 08:22:22;;;;;;;0.60;0.60;;;7.30;99.90;;;;;;5083291;28;20047;-74
2023/10/15 08:24:48;;;;;;;1.13;1.13;;;7.50;99.90;;;;;;5104602;28;20043;-74
2023/10/15 08:27:14;;;;;;;;;;;7.20;99.90;;;;;;5103295;28;20065;-75
2023/10/15 08:29:44;;;;;;;0.50;0.50;;;7.50;99.90;;;;;;5104467;28;19919;-75
2023/10/15 08:32:16;;;;;;;0.82;0.82;;;;;;;;;;5102161;28;20043;-75
2023/10/15 08:34:43;;;;;;;0.40;0.40;;;;;;;;;;5101268;28;20390;-81
2023/10/15 08:37:10;;;;;;;0.40;0.40;;;7.70;99.90;;;;;;5102150;28;20071;-83
2023/10/15 08:39:38;;;;;;;;;;;7.20;99.90;;;;;;5104647;28;20957;-83
2023/10/15 08:42:11;;;;;;;0.70;0.70;;;6.60;99.90;;;;;;5103518;28;19963;-84
2023/10/15 08:44:40;;;;;;;0.50;0.50;;;6.30;99.90;;;;;;5120156;27;20055;-84
2023/10/15 08:47:10;;;;;;;0.60;0.60;;;6.10;99.90;;;;;;5102841;28;20044;-84
2023/10/15 08:49:35;;;;;;;0.52;0.52;;;6.00;99.90;;;;;;5104032;28;20105;-84
2023/10/15 08:52:01;;;;;;;0.68;0.68;;;5.80;99.90;;;;;;5093297;28;20047;-83
2023/10/15 08:54:28;;;;;;;0.52;0.52;;;5.70;99.90;;;;;;5073361;28;20837;-82
2023/10/15 08:56:57;;;;;;;0.60;0.60;;;5.70;99.90;;;;;;5124590;27;20048;-83
2023/10/15 08:59:23;;;;;;;0.52;0.52;;;5.80;99.90;;;;;;5077978;28;20056;-83
2023/10/15 09:01:52;;;;;;;0.60;0.60;;;5.80;99.90;;;;;;5107610;28;20085;-82
2023/10/15 09:04:18;;;;;;;0.50;0.50;;;5.90;99.90;;;;;;5092175;27;20036;-82
2023/10/15 09:06:47;;;;;;;0.60;0.60;;;6.00;99.90;;;;;;5088872;28;20051;-81
2023/10/15 09:09:13;;;;;;;0.50;0.50;;;6.10;99.90;;;;;;5108103;28;20107;-79
2023/10/15 09:11:42;;;;;;;0.50;0.50;;;6.10;99.90;;;;;;5106171;28;20039;-80
2023/10/15 09:14:13;;;;;;;0.65;0.65;;;6.20;99.90;;;;;;5088687;28;20385;-79
2023/10/15 09:16:46;;;;;;;0.55;0.55;;;6.30;99.90;;;;;;5110831;27;20044;-79
2023/10/15 09:19:12;;;;;;;0.47;0.47;;;6.50;99.90;;;;;;5107964;28;20047;-80
2023/10/15 09:21:38;;;;;;;0.50;0.50;;;6.50;99.90;;;;;;5108268;27;20052;-79
2023/10/15 09:24:06;;;;;;;0.60;0.60;;;6.70;99.90;;;;;;5109150;27;20047;-78
2023/10/15 09:26:35;;;;;;;0.50;0.50;;;6.90;99.90;;;;;;5096450;27;20054;-79
2023/10/15 09:29:01;;;;;;;0.60;0.60;;;7.10;99.90;;;;;;5109650;27;20047;-77
2023/10/15 09:31:26;;;;;;;;;;;7.20;99.90;;;;;;5092205;27;20055;-77
2023/10/15 09:33:52;;;;;;;0.50;0.50;;;7.40;99.90;;;;;;5111739;27;19983;-78
2023/10/15 09:36:18;;;;;;;0.50;0.50;;;7.60;99.90;;;;;;5103708;28;20070;-77
2023/10/15 09:38:45;;;;;;;0.60;0.60;;;7.70;99.90;;;;;;5105732;28;20046;-77
2023/10/15 09:41:12;;;;;;;0.50;0.50;;;7.90;99.90;;;;;;5090154;28;20047;-77
2023/10/15 09:43:38;;;;;;;0.50;0.50;;;8.10;99.90;;;;;;5105265;28;20509;-77
2023/10/15 09:46:05;;;;;;;0.60;0.60;;;8.20;99.90;;;;;;5106482;27;20051;-76
2023/10/15 09:48:33;;;;;;;0.98;0.98;;;8.30;99.90;;;;;;5106409;28;20051;-75
2023/10/15 09:51:00;;;;;;;0.50;0.50;;;8.40;99.90;;;;;;5107751;28;20048;-76
2023/10/15 09:53:27;;;;;;;;;;;8.50;99.90;;;;;;5107688;28;20097;-76
2023/10/15 09:55:53;;;;;;;0.50;0.50;;;8.50;99.90;;;;;;5106100;27;20518;-77
2023/10/15 09:58:19;;;;;;;0.40;0.40;;;8.60;99.90;;;;;;5097156;27;20044;-76
2023/10/15 10:03:47;;;;;;;0.55;0.55;;;8.80;99.90;;;;;;5100511;28;20130;-76
2023/10/15 10:06:31;;;;;;;0.40;0.40;;;8.90;99.90;;;;;;5108874;28;20043;-76
2023/10/15 10:09:21;;;;;;;0.50;0.50;;;9.20;99.90;;;;;;5109421;27;20101;-76
2023/10/15 10:12:22;;;;;;;0.32;0.32;;;9.40;99.90;;;;;;5107155;27;20058;-76
2023/10/15 10:14:54;;;;;;;0.50;0.50;;;;;;;;;;5105686;28;20485;-76
2023/10/15 10:17:21;;;;;;;0.82;0.82;;;;;;;;;;5110401;28;20043;-74
2023/10/15 10:19:52;;;;;;;1.17;1.15;;;;;;;;;;5110207;28;20051;-74
2023/10/15 10:22:24;;;;;;;0.40;0.40;;;;;;;;;;5109352;28;20044;-75
2023/10/15 10:24:51;;;;;;;3.30;1.10;;;;;;;;;;5110917;28;20082;-74
2023/10/15 10:27:17;;;;;;;0.40;0.40;;;8.70;99.90;;;;;;5111700;28;20044;-75
2023/10/15 10:29:53;;;;;;;0.60;0.60;;;8.60;99.90;;;;;;5115190;27;20062;-76
2023/10/15 10:32:21;;;;;;;0.40;0.40;;;8.30;99.90;;;;;;5108727;27;20044;-76
2023/10/15 10:35:20;;;;;;;0.50;0.50;;;8.20;99.90;;;;;;5109661;27;20076;-76
2023/10/15 10:38:11;;;;;;;0.50;0.50;;;8.20;99.90;;;;;;5096557;27;20047;-75
2023/10/15 10:41:03;;;;;;;0.40;0.40;;;8.60;99.90;;;;;;5106416;27;20047;-75
2023/10/15 10:43:29;;;;;;;0.40;0.40;;;9.20;99.90;;;;;;5109380;28;20135;-77
2023/10/15 10:45:57;;;;;;;0.40;0.40;;;9.60;99.90;;;;;;5107775;28;20135;-77
2023/10/15 10:48:25;;;;;;;0.50;0.50;;;9.60;99.90;;;;;;5107390;28;20046;-76
2023/10/15 10:51:19;;;;;;;0.50;0.50;;;9.40;99.90;;;;;;5109978;27;20116;-77
2023/10/15 10:54:15;;;;;;;0.50;0.50;;;9.10;99.90;;;;;;5109860;28;20405;-77
2023/10/15 10:56:41;;;;;;;0.60;0.60;;;8.80;99.90;;;;;;5103628;28;20044;-75
2023/10/15 10:59:12;;;;;;;0.50;0.50;;;8.70;99.90;;;;;;5109228;27;20583;-75
2023/10/15 11:01:40;;;;;;;0.30;0.30;;;8.80;99.90;;;;;;5099823;27;20049;-75
2023/10/15 11:04:07;;;;;;;0.40;0.40;;;9.00;99.90;;;;;;5102643;28;20048;-76
2023/10/15 11:06:36;;;;;;;0.43;0.43;;;9.10;99.90;;;;;;5099166;28;20047;-75
2023/10/15 11:09:15;;;;;;;0.45;0.45;;;9.20;99.90;;;;;;5083872;28;20081;-76
2023/10/15 11:12:04;;;;;;;0.60;0.60;;;9.10;99.90;;;;;;5101048;27;20087;-75
2023/10/15 11:14:30;;;;;;;0.50;0.50;;;9.00;99.90;;;;;;5109278;28;20045;-76
2023/10/15 11:16:56;;;;;;;0.88;0.57;;;8.80;99.90;;;;;;5109921;28;20040;-76
2023/10/15 11:19:28;;;;;;;0.40;0.40;;;8.80;99.90;;;;;;5104039;28;20126;-76
2023/10/15 11:21:55;;;;;;;0.60;0.60;;;9.10;99.90;;;;;;5096530;27;20051;-76
2023/10/15 11:24:26;;;;;;;0.50;0.50;;;9.40;99.90;;;;;;5101807;27;20043;-76
2023/10/15 11:26:54;;;;;;;0.43;0.43;;;9.70;99.90;;;;;;5101522;27;20328;-76
2023/10/15 11:29:24;;;;;;;1.13;1.05;;;9.90;99.90;;;;;;5103000;27;20052;-76
2023/10/15 11:31:55;;;;;;;0.40;0.40;;;10.10;99.90;;;;;;5102267;27;20043;-76
2023/10/15 11:34:24;;;;;;;0.40;0.40;;;10.10;99.90;;;;;;5103218;27;20043;-76
2023/10/15 11:36:52;;;;;;;0.40;0.40;;;9.90;99.90;;;;;;5092204;27;20079;-76
2023/10/15 11:39:42;;;;;;;0.50;0.50;;;9.90;99.90;;;;;;5091585;27;20056;-76
2023/10/15 11:42:09;;;;;;;0.50;0.50;;;9.80;99.90;;;;;;5097575;27;20575;-76
2023/10/15 11:44:42;;;;;;;0.73;0.73;;;9.70;99.90;;;;;;5097197;28;20059;-76
2023/10/15 11:47:19;;;;;;;0.40;0.40;;;9.60;99.90;;;;;;5100402;27;20062;-76
2023/10/15 11:49:46;;;;;;;0.40;0.40;;;9.60;99.90;;;;;;5075506;28;20052;-76
2023/10/15 11:52:12;;;;;;;;;;;9.70;99.90;;;;;;5099613;28;20054;-76
2023/10/15 11:54:43;;;;;;;2.10;2.00;;;9.70;99.90;;;;;;5099449;28;19990;-76
2023/10/15 11:57:16;;;;;;;0.50;0.50;;;9.90;99.90;;;;;;5098776;27;20383;-76
2023/10/15 11:59:43;;;;;;;0.40;0.40;;;10.00;99.90;;;;;;5096241;27;20051;-76
2023/10/15 12:02:11;;;;;;;0.55;0.55;;;10.40;99.90;;;;;;5095951;27;20048;-76
2023/10/15 12:04:40;;;;;;;0.50;0.50;;;10.60;99.90;;;;;;5096603;28;20045;-76
2023/10/15 12:07:15;;;;;;;0.40;0.40;;;11.00;99.90;;;;;;5081774;27;20120;-76
2023/10/15 12:09:47;;;;;;;0.50;0.50;;;11.10;99.90;;;;;;5097441;27;20537;-76
2023/10/15 12:12:14;;;;;;;0.45;0.45;;;10.90;99.90;;;;;;5097306;27;20047;-76
2023/10/15 12:14:40;;;;;;;0.40;0.40;;;10.70;99.90;;;;;;5098694;28;20043;-76
2023/10/15 12:17:06;;;;;;;0.40;0.40;;;10.50;99.90;;;;;;5095945;28;20052;-76
2023/10/15 12:19:32;;;;;;;0.50;0.50;;;10.30;99.90;;;;;;5097828;28;20031;-75
2023/10/15 12:21:58;;;;;;;0.47;0.47;;;10.30;99.90;;;;;;5095467;28;20639;-76
2023/10/15 12:24:25;;;;;;;0.55;0.55;;;10.30;99.90;;;;;;5084392;28;20051;-75
2023/10/15 12:26:51;;;;;;;0.30;0.30;;;10.50;99.90;;;;;;5100608;28;20044;-76
2023/10/15 12:29:17;;;;;;;1.27;1.17;;;10.60;99.90;;;;;;5097102;28;20050;-76
2023/10/15 12:31:43;;;;;;;0.47;0.47;;;10.80;99.90;;;;;;5096230;28;20048;-76
2023/10/15 12:34:12;;;;;;;0.40;0.40;;;11.10;99.90;;;;;;5097563;28;20428;-75
2023/10/15 12:36:41;;;;;;;0.40;0.40;;;11.30;99.90;;;;;;5092819;28;20735;-75
2023/10/15 12:39:07;;;;;;;1.20;1.20;;;11.60;99.90;;;;;;5098929;28;20078;-75
2023/10/15 12:41:38;;;;;;;0.40;0.40;;;11.80;99.90;;;;;;5079087;28;20533;-75
2023/10/15 12:44:10;;;;;;;0.45;0.45;;;11.80;99.90;;;;;;5077842;28;20112;-75
2023/10/15 12:46:37;;;;;;;0.40;0.40;;;11.70;99.90;;;;;;5098755;28;20100;-75
2023/10/15 12:49:03;;;;;;;;;;;11.60;99.90;;;;;;5102311;28;20044;-75
2023/10/15 12:51:30;;;;;;;0.40;0.40;;;11.40;99.90;;;;;;5081422;28;20436;-75
2023/10/15 12:53:56;;;;;;;0.40;0.40;;;11.40;99.90;;;;;;5096731;28;20415;-75
2023/10/15 12:56:22;;;;;;;;;;;11.30;99.90;;;;;;5100164;28;20047;-75
2023/10/15 12:58:49;;;;;;;0.40;0.40;;;11.10;99.90;;;;;;5088349;28;19924;-75
2023/10/15 13:01:20;;;;;;;0.40;0.40;;;11.00;99.90;;;;;;5070647;28;20399;-75
2023/10/15 13:03:47;;;;;;;0.40;0.40;;;10.90;99.90;;;;;;5084547;28;20062;-75
2023/10/15 13:06:15;;;;;;;0.47;0.47;;;10.80;99.90;;;;;;5082228;28;20047;-75
2023/10/15 13:08:42;;;;;;;0.35;0.35;;;10.80;99.90;;;;;;5095520;28;20055;-74
2023/10/15 13:11:08;;;;;;;0.40;0.40;;;10.70;99.90;;;;;;5092092;28;20050;-74
2023/10/15 13:13:33;;;;;;;0.82;0.75;;;10.60;99.90;;;;;;5095432;28;20043;-74
2023/10/15 13:15:59;;;;;;;0.40;0.40;;;10.60;99.90;;;;;;5078535;28;20058;-74
2023/10/15 13:18:25;;;;;;;0.60;0.60;;;10.70;99.90;;;;;;5094351;28;20047;-74
2023/10/15 13:20:50;;;;;;;0.73;0.73;;;10.90;99.90;;;;;;5083905;28;20094;-74
2023/10/15 13:23:16;;;;;;;0.40;0.40;;;11.00;99.90;;;;;;5096835;28;20043;-75
2023/10/15 13:25:42;;;;;;;0.40;0.40;;;11.20;99.90;;;;;;5082982;28;20055;-74
2023/10/15 13:28:08;;;;;;;2.83;2.63;;;11.50;99.90;;;;;;5096879;28;20040;-74
2023/10/15 13:30:34;;;;;;;0.30;0.30;;;12.10;99.90;;;;;;5096539;28;20047;-74
2023/10/15 13:33:01;;;;;;;0.40;0.40;;;12.60;99.90;;;;;;5094027;28;20036;-74
2023/10/15 13:35:27;;;;;;;0.50;0.50;;;13.00;99.90;;;;;;5096142;28;20112;-74